createdAt,value
2018-05-21T00:01:00.035Z,44.90
2018-05-21T00:03:27.567Z,44.90
2018-05-21T00:05:55.056Z,44.80
2018-05-21T00:08:22.509Z,44.80
2018-05-21T00:10:50.012Z,44.70
2018-05-21T00:13:18.251Z,44.80
2018-05-21T00:15:45.746Z,44.80
2018-05-21T00:18:13.985Z,44.90
2018-05-21T00:20:42.989Z,44.90
2018-05-21T00:23:10.484Z,44.80
2018-05-21T00:25:37.944Z,44.70
2018-05-21T00:28:05.642Z,44.80
2018-05-21T00:30:33.205Z,45.00
2018-05-21T00:33:01.309Z,44.80
2018-05-21T00:35:28.772Z,45.00
2018-05-21T00:37:56.406Z,44.90
2018-05-21T00:40:24.132Z,44.90
2018-05-21T00:42:51.742Z,45.10
2018-05-21T00:45:19.219Z,45.10
2018-05-21T00:47:46.735Z,45.20
2018-05-21T00:50:14.213Z,45.10
2018-05-21T00:52:41.671Z,45.20
2018-05-21T00:55:21.908Z,45.20
2018-05-21T00:57:49.747Z,45.10
2018-05-21T01:00:17.175Z,45.10
2018-05-21T01:02:45.063Z,45.10
2018-05-21T01:05:12.523Z,45.30
2018-05-21T01:07:40.083Z,45.20
2018-05-21T01:10:07.561Z,45.30
2018-05-21T01:12:35.066Z,45.10
2018-05-21T01:15:02.652Z,45.00
2018-05-21T01:17:30.101Z,45.10
2018-05-21T01:19:57.588Z,45.00
2018-05-21T01:22:25.027Z,45.00
2018-05-21T01:24:52.503Z,45.10
2018-05-21T01:27:19.942Z,45.10
2018-05-21T01:29:47.425Z,45.00
2018-05-21T01:32:14.885Z,45.20
2018-05-21T01:34:42.355Z,45.00
2018-05-21T01:37:10.619Z,45.20
2018-05-21T01:39:38.209Z,45.20
2018-05-21T01:42:05.667Z,45.00
2018-05-21T01:44:33.388Z,45.20
2018-05-21T01:47:01.609Z,45.30
2018-05-21T01:49:29.190Z,45.20
2018-05-21T01:51:56.678Z,45.50
2018-05-21T01:54:24.217Z,45.60
2018-05-21T01:56:51.710Z,45.90
2018-05-21T01:59:19.190Z,46.10
2018-05-21T02:01:46.638Z,46.50
2018-05-21T02:04:14.846Z,46.20
2018-05-21T02:06:42.423Z,46.10
2018-05-21T02:09:09.873Z,46.30
2018-05-21T02:11:37.363Z,46.20
2018-05-21T02:14:05.575Z,46.40
2018-05-21T02:16:33.651Z,46.50
2018-05-21T02:19:01.184Z,46.20
2018-05-21T02:21:28.968Z,46.10
2018-05-21T02:23:56.567Z,46.30
2018-05-21T02:26:25.422Z,46.20
2018-05-21T02:28:53.751Z,46.30
2018-05-21T02:31:21.282Z,46.20
2018-05-21T02:33:48.935Z,46.50
2018-05-21T02:36:16.498Z,46.10
2018-05-21T02:38:43.964Z,46.10
2018-05-21T02:41:11.411Z,46.00
2018-05-21T02:43:38.890Z,46.10
2018-05-21T02:46:06.374Z,45.90
2018-05-21T02:48:33.858Z,45.90
2018-05-21T02:51:01.324Z,45.70
2018-05-21T02:53:28.807Z,45.90
2018-05-21T02:55:56.307Z,45.90
2018-05-21T02:58:23.903Z,46.20
2018-05-21T03:00:51.344Z,46.40
2018-05-21T03:03:21.078Z,46.50
2018-05-21T03:05:48.598Z,46.50
2018-05-21T03:08:19.116Z,46.70
2018-05-21T03:10:46.711Z,46.70
2018-05-21T03:13:14.489Z,46.70
2018-05-21T03:15:42.094Z,46.90
2018-05-21T03:18:09.890Z,47.00
2018-05-21T03:20:37.431Z,47.00
2018-05-21T03:23:05.074Z,47.00
2018-05-21T03:25:32.590Z,47.10
2018-05-21T03:28:00.056Z,47.30
2018-05-21T03:30:27.506Z,47.30
2018-05-21T03:32:54.993Z,47.40
2018-05-21T03:35:22.464Z,47.60
2018-05-21T03:37:49.923Z,47.70
2018-05-21T03:40:18.177Z,47.80
2018-05-21T03:42:45.621Z,47.80
2018-05-21T03:45:13.124Z,47.80
2018-05-21T03:47:41.357Z,47.80
2018-05-21T03:50:09.509Z,47.80
2018-05-21T03:52:37.015Z,47.90
2018-05-21T03:55:04.546Z,47.80
2018-05-21T03:57:32.084Z,47.80
2018-05-21T04:00:11.378Z,48.00
2018-05-21T04:02:51.655Z,48.20
2018-05-21T04:05:19.104Z,48.20
2018-05-21T04:07:47.372Z,48.90
2018-05-21T04:10:15.631Z,49.40
2018-05-21T04:12:43.092Z,49.40
2018-05-21T04:15:10.528Z,49.10
2018-05-21T04:17:37.990Z,49.50
2018-05-21T04:20:06.196Z,49.20
2018-05-21T04:22:34.513Z,49.60
2018-05-21T04:25:01.956Z,49.50
2018-05-21T04:27:31.439Z,49.60
2018-05-21T04:29:58.908Z,49.80
2018-05-21T04:32:26.699Z,49.90
2018-05-21T04:34:54.139Z,49.70
2018-05-21T04:37:22.023Z,49.70
2018-05-21T04:39:50.426Z,50.70
2018-05-21T04:42:17.941Z,50.00
2018-05-21T04:44:45.482Z,49.70
2018-05-21T04:47:13.785Z,49.50
2018-05-21T04:49:41.236Z,49.50
2018-05-21T04:52:08.683Z,49.60
2018-05-21T04:54:36.153Z,49.30
2018-05-21T04:57:03.664Z,49.30
2018-05-21T04:59:31.207Z,49.40
2018-05-21T05:01:58.714Z,49.30
2018-05-21T05:04:26.191Z,49.30
2018-05-21T05:06:53.649Z,49.30
2018-05-21T05:09:21.231Z,49.30
2018-05-21T05:11:48.672Z,49.30
2018-05-21T05:14:16.580Z,49.60
2018-05-21T05:16:44.055Z,49.50
2018-05-21T05:19:11.655Z,49.70
2018-05-21T05:21:39.336Z,49.90
2018-05-21T05:24:06.835Z,49.60
2018-05-21T05:26:34.370Z,49.80
2018-05-21T05:29:01.941Z,49.70
2018-05-21T05:31:29.548Z,49.60
2018-05-21T05:33:57.055Z,49.70
2018-05-21T05:36:25.317Z,49.60
2018-05-21T05:38:52.831Z,49.60
2018-05-21T05:41:20.341Z,49.60
2018-05-21T05:43:47.852Z,49.30
2018-05-21T05:46:15.503Z,49.30
2018-05-21T05:48:43.024Z,49.40
2018-05-21T05:51:10.569Z,49.50
2018-05-21T05:53:38.019Z,49.50
2018-05-21T05:56:05.552Z,49.50
2018-05-21T05:58:33.059Z,49.50
2018-05-21T06:01:01.741Z,49.70
2018-05-21T06:03:29.515Z,49.60
2018-05-21T06:05:57.829Z,49.80
2018-05-21T06:08:25.278Z,49.80
2018-05-21T06:10:52.752Z,49.90
2018-05-21T06:13:20.209Z,49.90
2018-05-21T06:15:47.680Z,50.10
2018-05-21T06:18:15.121Z,50.10
2018-05-21T06:20:42.571Z,50.30
2018-05-21T06:23:10.027Z,50.30
2018-05-21T06:25:37.502Z,50.30
2018-05-21T06:28:05.317Z,50.30
2018-05-21T06:30:32.864Z,50.40
2018-05-21T06:33:01.150Z,50.60
2018-05-21T06:35:28.667Z,50.60
2018-05-21T06:37:56.194Z,50.50
2018-05-21T06:40:23.649Z,50.60
2018-05-21T06:42:51.201Z,50.70
2018-05-21T06:45:18.633Z,51.10
2018-05-21T06:47:46.122Z,50.80
2018-05-21T06:50:13.559Z,51.00
2018-05-21T06:52:41.027Z,51.30
2018-05-21T06:55:08.475Z,51.30
2018-05-21T06:57:35.944Z,51.00
2018-05-21T07:00:03.522Z,51.10
2018-05-21T07:02:31.000Z,50.90
2018-05-21T07:04:58.573Z,50.70
2018-05-21T07:07:26.901Z,50.30
2018-05-21T07:09:54.616Z,50.20
2018-05-21T07:12:22.109Z,50.50
2018-05-21T07:14:49.589Z,50.80
2018-05-21T07:17:17.052Z,51.30
2018-05-21T07:19:44.495Z,51.20
2018-05-21T07:22:11.978Z,50.80
2018-05-21T07:24:39.478Z,50.80
2018-05-21T07:27:06.911Z,51.40
2018-05-21T07:29:35.149Z,51.40
2018-05-21T07:32:02.613Z,50.80
2018-05-21T07:34:30.269Z,50.90
2018-05-21T07:36:58.704Z,50.70
2018-05-21T07:39:26.161Z,51.00
2018-05-21T07:41:53.681Z,51.10
2018-05-21T07:44:21.151Z,50.90
2018-05-21T07:46:48.861Z,51.00
2018-05-21T07:49:16.379Z,51.50
2018-05-21T07:51:44.590Z,51.50
2018-05-21T07:54:12.145Z,51.50
2018-05-21T07:56:39.609Z,51.50
2018-05-21T07:59:07.087Z,51.50
2018-05-21T08:01:34.548Z,51.90
2018-05-21T08:04:01.990Z,52.20
2018-05-21T08:06:29.439Z,52.50
2018-05-21T08:08:56.917Z,51.90
2018-05-21T08:11:24.471Z,51.70
2018-05-21T08:13:54.839Z,51.90
2018-05-21T08:16:27.195Z,52.00
2018-05-21T08:18:55.762Z,51.60
2018-05-21T08:21:23.421Z,52.20
2018-05-21T08:23:50.865Z,51.80
2018-05-21T08:26:18.316Z,51.70
2018-05-21T08:31:18.367Z,51.80
2018-05-21T08:33:45.863Z,51.80
2018-05-21T08:36:14.094Z,51.50
2018-05-21T08:38:41.543Z,51.50
2018-05-21T08:41:09.313Z,51.00
2018-05-21T08:43:36.750Z,51.30
2018-05-21T08:46:04.576Z,53.30
2018-05-21T08:48:32.123Z,51.60
2018-05-21T08:50:59.550Z,51.80
2018-05-21T08:53:27.003Z,51.50
2018-05-21T08:55:54.639Z,49.70
2018-05-21T08:58:22.128Z,50.20
2018-05-21T09:00:50.433Z,50.40
2018-05-21T09:03:18.077Z,50.30
2018-05-21T09:05:45.562Z,50.40
2018-05-21T09:08:13.853Z,49.70
2018-05-21T09:10:41.335Z,49.70
2018-05-21T09:13:08.790Z,49.10
2018-05-21T09:15:36.490Z,49.90
2018-05-21T09:18:04.865Z,49.10
2018-05-21T09:20:32.326Z,48.20
2018-05-21T09:22:59.841Z,48.30
2018-05-21T09:25:27.944Z,48.90
2018-05-21T09:27:55.646Z,48.50
2018-05-21T09:30:23.105Z,47.90
2018-05-21T09:32:51.339Z,46.30
2018-05-21T09:35:18.799Z,46.30
2018-05-21T09:37:46.271Z,46.30
2018-05-21T09:40:14.096Z,48.80
2018-05-21T09:42:41.597Z,48.20
2018-05-21T09:45:09.545Z,47.60
2018-05-21T09:47:36.982Z,47.40
2018-05-21T09:50:04.486Z,47.70
2018-05-21T09:52:32.782Z,44.90
2018-05-21T09:55:01.120Z,44.80
2018-05-21T09:57:28.605Z,44.70
2018-05-21T09:59:56.072Z,43.70
2018-05-21T10:02:24.314Z,43.50
2018-05-21T10:04:51.795Z,43.50
2018-05-21T10:07:20.005Z,42.30
2018-05-21T10:09:47.512Z,42.00
2018-05-21T10:12:15.044Z,42.60
2018-05-21T10:14:42.443Z,42.10
2018-05-21T10:17:10.663Z,41.60
2018-05-21T10:19:38.145Z,41.50
2018-05-21T10:22:05.673Z,40.50
2018-05-21T10:24:33.133Z,41.70
2018-05-21T10:27:01.031Z,39.40
2018-05-21T10:29:28.636Z,40.00
2018-05-21T10:31:57.423Z,37.80
2018-05-21T10:34:24.955Z,36.50
2018-05-21T10:36:52.506Z,36.80
2018-05-21T10:39:19.960Z,37.00
2018-05-21T10:41:47.457Z,36.50
2018-05-21T10:44:14.987Z,36.70
2018-05-21T10:46:43.236Z,38.70
2018-05-21T10:49:10.700Z,38.70
2018-05-21T10:51:38.150Z,39.50
2018-05-21T10:54:05.815Z,37.80
2018-05-21T10:56:33.300Z,37.30
2018-05-21T10:59:01.520Z,36.70
2018-05-21T11:01:28.983Z,36.70
2018-05-21T11:03:56.528Z,36.50
2018-05-21T11:06:23.992Z,36.60
2018-05-21T11:08:51.703Z,36.50
2018-05-21T11:11:20.055Z,36.50
2018-05-21T11:13:47.623Z,36.50
2018-05-21T11:16:15.098Z,34.70
2018-05-21T11:18:42.620Z,33.90
2018-05-21T11:21:10.887Z,34.80
2018-05-21T11:23:38.363Z,34.40
2018-05-21T11:26:05.837Z,32.90
2018-05-21T11:40:05.927Z,36.40
2018-05-21T11:42:33.375Z,37.00
2018-05-21T11:45:02.384Z,35.90
2018-05-21T11:47:30.624Z,33.40
2018-05-21T11:49:58.127Z,33.30
2018-05-21T11:52:26.475Z,33.50
2018-05-21T11:54:55.564Z,32.60
2018-05-21T11:57:23.040Z,32.50
2018-05-21T11:59:51.512Z,33.20
2018-05-21T12:02:19.026Z,33.30
2018-05-21T12:04:46.503Z,33.10
2018-05-21T12:07:13.975Z,32.20
2018-05-21T12:09:41.490Z,32.70
2018-05-21T12:12:08.972Z,32.70
2018-05-21T12:14:36.471Z,32.90
2018-05-21T12:17:03.971Z,33.00
2018-05-21T12:19:31.499Z,33.90
2018-05-21T12:21:59.747Z,32.10
2018-05-21T12:24:27.223Z,32.00
2018-05-21T12:26:55.495Z,32.60
2018-05-21T12:29:23.002Z,32.50
2018-05-21T12:31:50.484Z,32.20
2018-05-21T12:34:17.930Z,31.50
2018-05-21T12:36:45.607Z,32.30
2018-05-21T12:39:13.124Z,34.40
2018-05-21T12:41:40.581Z,33.30
2018-05-21T12:44:08.089Z,31.80
2018-05-21T12:46:35.546Z,30.40
2018-05-21T12:49:03.758Z,31.20
2018-05-21T12:51:31.240Z,31.20
2018-05-21T12:53:58.687Z,30.00
2018-05-21T12:56:26.243Z,30.90
2018-05-21T12:58:53.693Z,31.70
2018-05-21T13:01:21.188Z,31.40
2018-05-21T13:03:48.630Z,31.50
2018-05-21T13:06:16.192Z,32.40
2018-05-21T13:08:43.646Z,32.30
2018-05-21T13:11:11.152Z,31.40
2018-05-21T13:13:39.368Z,33.10
2018-05-21T13:16:06.883Z,33.00
2018-05-21T13:18:35.091Z,31.90
2018-05-21T13:21:02.537Z,31.90
2018-05-21T13:23:30.044Z,31.20
2018-05-21T13:25:57.459Z,32.40
2018-05-21T13:28:25.708Z,29.30
2018-05-21T13:30:53.925Z,29.30
2018-05-21T13:33:21.447Z,29.20
2018-05-21T13:35:48.891Z,30.30
2018-05-21T13:38:17.173Z,30.70
2018-05-21T13:40:45.379Z,31.00
2018-05-21T13:43:12.938Z,31.00
2018-05-21T13:45:41.134Z,30.80
2018-05-21T13:48:08.643Z,30.80
2018-05-21T13:50:36.938Z,29.70
2018-05-21T13:53:04.497Z,29.60
2018-05-21T13:55:31.948Z,29.70
2018-05-21T13:57:59.487Z,29.40
2018-05-21T14:00:27.713Z,29.70
2018-05-21T14:02:55.176Z,29.20
2018-05-21T14:05:22.619Z,29.30
2018-05-21T14:07:50.123Z,29.90
2018-05-21T14:10:18.339Z,29.10
2018-05-21T14:12:45.835Z,28.90
2018-05-21T14:15:13.381Z,29.70
2018-05-21T14:17:40.817Z,29.80
2018-05-21T14:20:08.396Z,28.30
2018-05-21T14:22:35.900Z,28.90
2018-05-21T14:25:04.284Z,28.30
2018-05-21T14:27:32.490Z,28.90
2018-05-21T14:30:00.663Z,28.90
2018-05-21T14:32:28.920Z,29.00
2018-05-21T14:34:56.440Z,29.00
2018-05-21T14:37:24.659Z,27.90
2018-05-21T14:39:52.192Z,27.90
2018-05-21T14:42:20.420Z,28.30
2018-05-21T14:44:47.904Z,28.30
2018-05-21T14:47:16.108Z,27.90
2018-05-21T14:49:43.791Z,27.90
2018-05-21T14:52:11.236Z,27.30
2018-05-21T14:54:38.684Z,26.30
2018-05-21T14:57:06.181Z,26.80
2018-05-21T14:59:33.651Z,27.20
2018-05-21T15:02:01.302Z,26.40
2018-05-21T15:04:28.735Z,26.70
2018-05-21T15:06:56.378Z,27.30
2018-05-21T15:09:23.895Z,27.10
2018-05-21T15:11:51.528Z,26.70
2018-05-21T15:14:18.983Z,26.60
2018-05-21T15:16:46.636Z,26.70
2018-05-21T15:19:14.071Z,26.10
2018-05-21T15:21:41.555Z,26.80
2018-05-21T15:24:08.996Z,27.40
2018-05-21T15:26:36.472Z,26.80
2018-05-21T15:29:04.341Z,26.00
2018-05-21T15:31:31.829Z,26.10
2018-05-21T15:33:59.309Z,26.60
2018-05-21T15:36:26.748Z,27.00
2018-05-21T15:38:54.423Z,26.70
2018-05-21T15:41:21.886Z,26.50
2018-05-21T15:43:49.400Z,27.30
2018-05-21T15:46:17.146Z,27.30
2018-05-21T15:48:44.645Z,26.90
2018-05-21T15:51:12.075Z,27.20
2018-05-21T15:53:39.605Z,27.60
2018-05-21T15:56:07.067Z,27.00
2018-05-21T15:58:34.550Z,26.70
2018-05-21T16:01:02.024Z,27.00
2018-05-21T16:03:30.414Z,27.30
2018-05-21T16:05:58.609Z,27.00
2018-05-21T16:08:26.103Z,26.90
2018-05-21T16:10:53.551Z,27.60
2018-05-21T16:13:21.013Z,26.70
2018-05-21T16:15:48.567Z,26.70
2018-05-21T16:18:16.016Z,27.20
2018-05-21T16:20:43.695Z,26.90
2018-05-21T16:23:12.726Z,26.80
2018-05-21T16:25:40.208Z,26.70
2018-05-21T16:28:07.672Z,26.60
2018-05-21T16:30:35.211Z,27.00
2018-05-21T16:33:02.695Z,26.60
2018-05-21T16:35:30.153Z,27.10
2018-05-21T16:37:57.751Z,27.00
2018-05-21T16:40:25.287Z,26.10
2018-05-21T16:42:52.687Z,27.10
2018-05-21T16:45:21.208Z,26.20
2018-05-21T16:47:48.803Z,26.20
2018-05-21T16:50:16.209Z,26.40
2018-05-21T16:52:43.675Z,26.50
2018-05-21T16:55:11.139Z,26.50
2018-05-21T16:57:38.701Z,27.00
2018-05-21T17:00:06.247Z,26.60
2018-05-21T17:02:33.976Z,27.20
2018-05-21T17:05:01.555Z,27.50
2018-05-21T17:07:29.173Z,27.10
2018-05-21T17:09:56.648Z,27.60
2018-05-21T17:12:25.017Z,27.20
2018-05-21T17:14:52.488Z,27.20
2018-05-21T17:17:20.823Z,27.20
2018-05-21T17:19:48.335Z,27.20
2018-05-21T17:22:15.799Z,27.30
2018-05-21T17:24:43.327Z,27.90
2018-05-21T17:27:10.787Z,27.90
2018-05-21T17:29:39.030Z,27.70
2018-05-21T17:32:06.488Z,27.60
2018-05-21T17:34:33.967Z,28.00
2018-05-21T17:37:01.421Z,27.60
2018-05-21T17:39:28.968Z,27.40
2018-05-21T17:41:56.473Z,27.30
2018-05-21T17:44:24.012Z,27.50
2018-05-21T17:46:52.351Z,27.80
2018-05-21T17:49:19.844Z,27.80
2018-05-21T17:51:48.167Z,28.40
2018-05-21T17:54:15.571Z,28.30
2018-05-21T17:56:43.795Z,28.20
2018-05-21T17:59:11.257Z,28.20
2018-05-21T18:01:38.724Z,28.40
2018-05-21T18:04:06.199Z,28.60
2018-05-21T18:06:33.710Z,29.00
2018-05-21T18:09:01.185Z,28.90
2018-05-21T18:11:28.866Z,29.10
2018-05-21T18:13:56.308Z,29.10
2018-05-21T18:16:23.975Z,29.20
2018-05-21T18:18:51.528Z,29.20
2018-05-21T18:21:19.740Z,29.20
2018-05-21T18:23:47.200Z,29.10
2018-05-21T18:26:16.335Z,29.40
2018-05-21T18:28:43.795Z,29.40
2018-05-21T18:31:11.789Z,29.70
2018-05-21T18:33:39.235Z,29.60
2018-05-21T18:36:06.897Z,29.90
2018-05-21T18:38:35.095Z,30.00
2018-05-21T18:41:02.582Z,30.00
2018-05-21T18:43:30.819Z,30.60
2018-05-21T18:45:58.352Z,30.50
2018-05-21T18:48:25.807Z,30.90
2018-05-21T18:50:53.535Z,30.90
2018-05-21T18:53:21.732Z,31.20
2018-05-21T18:55:49.203Z,31.80
2018-05-21T18:58:16.657Z,31.30
2018-05-21T19:00:44.151Z,31.60
2018-05-21T19:03:11.636Z,31.80
2018-05-21T19:05:39.912Z,32.00
2018-05-21T19:08:08.535Z,32.20
2018-05-21T19:10:36.910Z,32.50
2018-05-21T19:13:04.407Z,32.40
2018-05-21T19:15:31.847Z,32.80
2018-05-21T19:17:59.380Z,33.10
2018-05-21T19:20:26.899Z,33.60
2018-05-21T19:22:55.193Z,34.20
2018-05-21T19:25:22.700Z,34.10
2018-05-21T19:27:50.188Z,34.50
2018-05-21T19:30:22.555Z,34.70
2018-05-21T19:32:50.799Z,35.20
2018-05-21T19:35:19.160Z,35.20
2018-05-21T19:37:46.642Z,35.20
2018-05-21T19:40:16.514Z,35.40
2018-05-21T19:42:43.920Z,35.70
2018-05-21T19:45:13.191Z,35.80
2018-05-21T19:47:40.746Z,35.90
2018-05-21T19:50:09.840Z,36.10
2018-05-21T19:52:37.343Z,36.10
2018-05-21T19:55:07.706Z,36.30
2018-05-21T19:57:35.193Z,36.40
2018-05-21T20:00:03.746Z,36.50
2018-05-21T20:11:11.006Z,36.50
2018-05-21T20:13:38.506Z,36.70
2018-05-21T20:16:06.707Z,36.80
2018-05-21T20:18:34.188Z,36.70
2018-05-21T20:21:01.614Z,36.80
2018-05-21T20:23:29.913Z,36.90
2018-05-21T20:25:57.375Z,36.90
2018-05-21T20:28:25.570Z,37.00
2018-05-21T20:30:53.014Z,37.10
2018-05-21T20:33:21.779Z,37.20
2018-05-21T20:35:49.246Z,37.40
2018-05-21T20:38:19.899Z,37.40
2018-05-21T20:40:47.359Z,37.50
2018-05-21T20:43:15.723Z,37.60
2018-05-21T20:45:43.163Z,37.70
2018-05-21T20:48:12.879Z,37.80
2018-05-21T20:50:40.380Z,37.90
2018-05-21T20:53:10.999Z,37.90
2018-05-21T20:55:38.442Z,38.10
2018-05-21T20:58:06.803Z,38.30
2018-05-21T21:00:34.291Z,38.30
2018-05-21T21:03:04.416Z,38.60
2018-05-21T21:05:31.907Z,38.80
2018-05-21T21:08:01.943Z,39.50
2018-05-21T21:10:29.485Z,39.00
2018-05-21T21:12:58.291Z,39.10
2018-05-21T21:15:25.756Z,39.20
2018-05-21T21:17:55.571Z,39.30
2018-05-21T21:20:23.045Z,39.20
2018-05-21T21:22:53.122Z,39.30
2018-05-21T21:25:20.592Z,39.30
2018-05-21T21:27:48.698Z,39.30
2018-05-21T21:30:16.142Z,39.50
2018-05-21T21:32:46.281Z,39.50
2018-05-21T21:35:13.770Z,39.70
2018-05-21T21:37:43.770Z,39.80
2018-05-21T21:40:12.023Z,39.90
2018-05-21T21:42:40.308Z,39.90
2018-05-21T21:45:07.772Z,39.90
2018-05-21T21:47:36.860Z,40.00
2018-05-21T21:50:04.327Z,40.20
2018-05-21T21:52:34.795Z,40.80
2018-05-21T21:55:02.323Z,40.40
2018-05-21T21:57:31.456Z,40.50
2018-05-21T21:59:58.923Z,40.50
2018-05-21T22:02:28.016Z,40.60
2018-05-21T22:04:55.549Z,41.30
2018-05-21T22:07:25.978Z,40.90
2018-05-21T22:09:53.456Z,40.90
2018-05-21T22:12:21.712Z,41.10
2018-05-21T22:14:49.228Z,41.20
2018-05-21T22:17:19.542Z,41.20
2018-05-21T22:19:47.015Z,41.30
2018-05-21T22:22:16.808Z,41.40
2018-05-21T22:24:44.281Z,41.70
2018-05-21T22:27:13.621Z,41.90
2018-05-21T22:29:41.094Z,41.90
2018-05-21T22:32:09.745Z,41.70
2018-05-21T22:34:37.227Z,42.00
2018-05-21T22:37:07.794Z,42.00
2018-05-21T22:39:35.242Z,42.00
2018-05-21T22:42:04.220Z,42.00
2018-05-21T22:44:46.332Z,42.00
2018-05-21T22:47:13.800Z,42.80
2018-05-21T22:49:43.243Z,42.40
2018-05-21T22:52:10.710Z,42.50
2018-05-21T22:54:40.727Z,42.50
2018-05-21T22:57:08.200Z,42.80
2018-05-21T22:59:35.749Z,42.60
2018-05-21T23:02:03.203Z,42.60
2018-05-21T23:04:33.323Z,42.80
2018-05-21T23:07:00.832Z,43.00
2018-05-21T23:09:31.942Z,43.20
2018-05-21T23:11:59.637Z,43.50
2018-05-21T23:14:27.930Z,43.50
2018-05-21T23:16:55.285Z,43.80
2018-05-21T23:19:24.686Z,44.30
2018-05-21T23:21:52.960Z,44.10
2018-05-21T23:24:23.017Z,44.20
2018-05-21T23:26:50.455Z,44.10
2018-05-21T23:29:19.807Z,44.30
